createdAt,value
2022-10-30T00:01:12.229Z,2.90
2022-10-30T00:04:35.702Z,2.30
2022-10-30T00:08:00.543Z,3.07
2022-10-30T00:11:25.612Z,2.10
2022-10-30T00:14:49.134Z,2.27
2022-10-30T00:18:12.522Z,2.60
2022-10-30T00:21:35.933Z,2.10
2022-10-30T00:24:59.453Z,2.13
2022-10-30T00:28:24.175Z,1.90
2022-10-30T00:31:47.558Z,2.23
2022-10-30T00:35:11.853Z,1.90
2022-10-30T00:38:35.840Z,2.50
2022-10-30T00:41:59.274Z,2.00
2022-10-30T00:45:26.806Z,1.87
2022-10-30T00:48:55.568Z,1.67
2022-10-30T00:52:21.947Z,2.20
2022-10-30T00:55:52.397Z,1.60
2022-10-30T00:59:24.470Z,2.07
2022-10-30T01:02:52.560Z,2.10
2022-10-30T01:06:17.688Z,1.50
2022-10-30T01:09:42.479Z,2.10
2022-10-30T01:13:07.965Z,1.57
2022-10-30T01:17:01.561Z,1.90
2022-10-30T01:20:55.158Z,2.07
2022-10-30T01:24:48.135Z,2.83
2022-10-30T01:28:35.042Z,2.87
2022-10-30T01:32:20.008Z,2.40
2022-10-30T01:35:51.670Z,2.50
2022-10-30T01:39:21.092Z,2.10
2022-10-30T01:42:52.149Z,2.67
2022-10-30T01:46:43.823Z,2.90
2022-10-30T01:50:24.590Z,2.57
2022-10-30T01:54:01.408Z,2.27
2022-10-30T01:57:40.866Z,3.00
2022-10-30T02:01:07.947Z,2.10
2022-10-30T02:04:33.084Z,2.00
2022-10-30T02:07:56.864Z,2.13
2022-10-30T02:11:24.397Z,1.93
2022-10-30T02:14:53.960Z,2.33
2022-10-30T02:18:17.362Z,2.27
2022-10-30T02:21:42.405Z,2.40
2022-10-30T02:25:06.973Z,2.40
2022-10-30T02:28:31.222Z,2.70
2022-10-30T02:31:54.757Z,2.33
2022-10-30T02:35:18.357Z,2.10
2022-10-30T02:38:43.539Z,2.60
2022-10-30T02:42:07.410Z,2.53
2022-10-30T02:45:30.828Z,2.30
2022-10-30T02:48:54.312Z,2.40
2022-10-30T02:52:17.725Z,1.70
2022-10-30T02:55:42.893Z,2.33
2022-10-30T02:59:06.406Z,2.60
2022-10-30T03:02:29.940Z,2.10
2022-10-30T03:05:53.429Z,2.60
2022-10-30T03:09:16.840Z,2.70
2022-10-30T03:12:41.648Z,2.10
2022-10-30T03:16:08.925Z,2.70
2022-10-30T03:19:32.434Z,2.17
2022-10-30T03:22:56.344Z,2.20
2022-10-30T03:26:21.203Z,2.33
2022-10-30T03:29:56.969Z,2.37
2022-10-30T03:33:22.029Z,2.30
2022-10-30T03:36:45.529Z,2.20
2022-10-30T03:40:11.165Z,2.10
2022-10-30T03:43:36.067Z,2.47
2022-10-30T03:47:01.996Z,1.93
2022-10-30T03:50:33.370Z,2.10
2022-10-30T03:53:56.933Z,2.30
2022-10-30T03:57:20.391Z,1.83
2022-10-30T04:01:08.419Z,1.97
2022-10-30T04:04:36.937Z,2.00
2022-10-30T04:08:03.471Z,1.70
2022-10-30T04:11:31.520Z,1.93
2022-10-30T04:14:56.830Z,1.73
2022-10-30T04:18:20.403Z,1.87
2022-10-30T04:21:47.713Z,2.30
2022-10-30T04:25:11.683Z,2.40
2022-10-30T04:28:35.182Z,2.20
2022-10-30T04:32:00.159Z,2.07
2022-10-30T04:35:27.554Z,2.30
2022-10-30T04:38:52.445Z,2.13
2022-10-30T04:42:17.481Z,2.00
2022-10-30T04:45:42.195Z,1.67
2022-10-30T04:49:05.799Z,2.03
2022-10-30T04:52:29.322Z,1.97
2022-10-30T04:55:56.301Z,1.77
2022-10-30T04:59:19.727Z,1.90
2022-10-30T05:06:18.417Z,1.73
2022-10-30T05:09:42.353Z,2.17
2022-10-30T05:13:07.290Z,2.17
2022-10-30T05:16:30.798Z,2.30
2022-10-30T05:19:56.682Z,1.90
2022-10-30T05:23:20.213Z,1.77
2022-10-30T05:26:44.103Z,2.10
2022-10-30T05:30:11.562Z,2.17
2022-10-30T05:33:35.174Z,1.80
2022-10-30T05:36:58.869Z,1.77
2022-10-30T05:40:22.510Z,2.17
2022-10-30T05:43:46.075Z,1.60
2022-10-30T05:47:12.813Z,1.90
2022-10-30T05:50:39.863Z,1.90
2022-10-30T05:54:22.866Z,2.10
2022-10-30T05:58:15.602Z,1.90
2022-10-30T06:01:41.366Z,1.53
2022-10-30T06:05:10.459Z,1.80
2022-10-30T06:08:34.165Z,2.40
2022-10-30T06:12:06.515Z,1.47
2022-10-30T06:15:46.947Z,1.87
2022-10-30T06:19:15.478Z,1.90
2022-10-30T06:22:43.803Z,1.60
2022-10-30T06:26:12.343Z,1.73
2022-10-30T06:29:41.277Z,1.73
2022-10-30T06:33:07.262Z,1.90
2022-10-30T06:36:32.537Z,1.80
2022-10-30T06:39:57.466Z,1.50
2022-10-30T06:43:39.679Z,1.77
2022-10-30T06:47:16.076Z,2.37
2022-10-30T06:50:39.651Z,1.93
2022-10-30T06:54:03.593Z,2.07
2022-10-30T06:57:37.681Z,2.20
2022-10-30T07:01:10.208Z,1.80
2022-10-30T07:04:56.699Z,1.90
2022-10-30T07:08:21.352Z,1.90
2022-10-30T07:11:46.447Z,2.20
2022-10-30T07:15:34.511Z,2.00
2022-10-30T07:19:12.167Z,1.77
2022-10-30T07:22:39.041Z,2.03
2022-10-30T07:26:04.638Z,2.17
2022-10-30T07:29:34.274Z,3.00
2022-10-30T07:33:28.484Z,2.40
2022-10-30T07:37:11.088Z,2.20
2022-10-30T07:40:54.250Z,1.97
2022-10-30T07:44:36.224Z,1.97
2022-10-30T07:48:16.159Z,2.83
2022-10-30T07:51:52.070Z,2.03
2022-10-30T07:55:15.851Z,2.13
2022-10-30T07:58:46.018Z,2.27
2022-10-30T08:02:44.927Z,2.30
2022-10-30T08:06:21.405Z,2.13
2022-10-30T08:09:49.825Z,1.90
2022-10-30T08:13:14.902Z,2.03
2022-10-30T08:16:38.550Z,2.53
2022-10-30T08:20:02.031Z,2.40
2022-10-30T08:23:25.594Z,2.10
2022-10-30T08:26:52.691Z,2.30
2022-10-30T08:30:16.376Z,1.67
2022-10-30T08:33:40.147Z,2.80
2022-10-30T08:37:22.489Z,2.20
2022-10-30T08:40:46.801Z,2.00
2022-10-30T08:44:13.014Z,2.17
2022-10-30T08:48:01.358Z,2.37
2022-10-30T08:51:25.881Z,2.20
2022-10-30T08:54:49.515Z,2.40
2022-10-30T08:58:13.056Z,1.70
2022-10-30T09:01:38.454Z,2.00
2022-10-30T09:05:31.158Z,2.07
2022-10-30T09:09:17.440Z,2.40
2022-10-30T09:12:46.183Z,2.20
2022-10-30T09:16:10.134Z,2.23
2022-10-30T09:19:36.495Z,1.97
2022-10-30T09:23:00.244Z,2.27
2022-10-30T09:26:24.023Z,1.77
2022-10-30T09:29:52.884Z,2.00
2022-10-30T09:33:22.232Z,2.00
2022-10-30T09:37:08.293Z,2.20
2022-10-30T09:40:54.144Z,2.10
2022-10-30T09:44:35.768Z,3.80
2022-10-30T09:48:33.202Z,2.50
2022-10-30T09:52:27.423Z,3.23
2022-10-30T09:56:06.078Z,2.33
2022-10-30T09:59:55.568Z,2.50
2022-10-30T10:07:43.632Z,2.07
2022-10-30T10:11:30.870Z,2.37
2022-10-30T10:14:57.688Z,2.63
2022-10-30T10:18:29.164Z,2.40
2022-10-30T10:21:58.540Z,2.53
2022-10-30T10:25:26.046Z,2.23
2022-10-30T10:29:09.754Z,2.50
2022-10-30T10:33:10.754Z,2.10
2022-10-30T10:36:47.214Z,2.00
2022-10-30T10:40:45.414Z,2.40
2022-10-30T10:44:29.433Z,2.20
2022-10-30T10:48:35.662Z,2.53
2022-10-30T10:52:04.235Z,2.47
2022-10-30T10:55:36.278Z,2.40
2022-10-30T10:59:08.898Z,2.27
2022-10-30T11:02:44.277Z,2.47
2022-10-30T11:06:21.463Z,2.60
2022-10-30T11:09:47.056Z,2.07
2022-10-30T11:13:14.584Z,2.43
2022-10-30T11:16:52.328Z,2.27
2022-10-30T11:20:23.056Z,2.50
2022-10-30T11:23:49.697Z,3.40
2022-10-30T11:27:30.620Z,3.20
2022-10-30T11:31:21.482Z,4.47
2022-10-30T11:34:45.353Z,4.77
2022-10-30T11:38:21.284Z,4.90
2022-10-30T11:41:54.845Z,4.10
2022-10-30T11:45:26.361Z,3.33
2022-10-30T11:48:54.963Z,2.80
2022-10-30T11:52:22.678Z,3.00
2022-10-30T11:55:50.303Z,3.20
2022-10-30T11:59:22.549Z,3.07
2022-10-30T12:02:51.371Z,3.17
2022-10-30T12:06:26.273Z,2.60
2022-10-30T12:09:50.031Z,2.50
2022-10-30T12:13:17.278Z,3.00
2022-10-30T12:16:48.740Z,2.73
2022-10-30T12:20:17.505Z,2.77
2022-10-30T12:23:43.218Z,2.90
2022-10-30T12:27:19.768Z,3.10
2022-10-30T12:30:54.402Z,3.37
2022-10-30T12:34:38.173Z,5.70
2022-10-30T12:38:07.294Z,7.60
2022-10-30T12:41:37.259Z,8.63
2022-10-30T12:45:14.301Z,8.60
2022-10-30T12:48:45.484Z,8.90
2022-10-30T12:52:17.831Z,7.90
2022-10-30T12:55:49.518Z,7.87
2022-10-30T12:59:33.689Z,6.60
2022-10-30T13:03:02.571Z,6.30
2022-10-30T13:06:32.726Z,6.30
2022-10-30T13:10:11.314Z,7.27
2022-10-30T13:13:40.496Z,6.37
2022-10-30T13:17:05.755Z,6.50
2022-10-30T13:20:32.675Z,5.30
2022-10-30T13:24:04.336Z,4.90
2022-10-30T13:27:41.024Z,4.83
2022-10-30T13:31:21.776Z,5.70
2022-10-30T13:34:56.659Z,4.10
2022-10-30T13:38:47.335Z,4.40
2022-10-30T13:42:29.731Z,3.90
2022-10-30T13:46:10.678Z,3.50
2022-10-30T13:50:06.886Z,3.40
2022-10-30T13:53:37.598Z,3.60
2022-10-30T13:57:10.284Z,2.50
2022-10-30T14:01:00.162Z,2.77
2022-10-30T14:04:34.879Z,2.70
2022-10-30T14:08:14.606Z,2.77
2022-10-30T14:11:38.033Z,2.80
2022-10-30T14:15:06.642Z,2.83
2022-10-30T14:18:46.336Z,3.00
2022-10-30T14:22:25.699Z,3.50
2022-10-30T14:26:21.574Z,2.90
2022-10-30T14:29:51.017Z,3.30
2022-10-30T14:33:36.373Z,3.23
2022-10-30T14:37:00.123Z,3.40
2022-10-30T14:40:41.363Z,3.20
2022-10-30T14:44:25.037Z,4.00
2022-10-30T14:47:57.774Z,3.97
2022-10-30T14:51:31.272Z,3.00
2022-10-30T14:55:24.069Z,2.90
2022-10-30T14:59:22.828Z,2.37
2022-10-30T15:02:57.190Z,2.60
2022-10-30T15:06:32.393Z,2.90
2022-10-30T15:10:12.224Z,4.03
2022-10-30T15:13:36.291Z,4.07
2022-10-30T15:17:01.750Z,4.87
2022-10-30T15:20:29.764Z,5.00
2022-10-30T15:23:58.678Z,5.77
2022-10-30T15:27:26.402Z,5.07
2022-10-30T15:31:05.845Z,4.80
2022-10-30T15:34:33.166Z,4.33
2022-10-30T15:38:02.379Z,4.13
2022-10-30T15:41:26.668Z,3.40
2022-10-30T15:44:50.556Z,3.10
2022-10-30T15:48:25.201Z,3.07
2022-10-30T15:51:50.259Z,3.60
2022-10-30T15:55:18.100Z,2.70
2022-10-30T15:58:42.311Z,2.73
2022-10-30T16:02:23.178Z,2.60
2022-10-30T16:05:47.215Z,2.57
2022-10-30T16:09:16.288Z,2.23
2022-10-30T16:12:39.847Z,2.70
2022-10-30T16:16:05.388Z,2.30
2022-10-30T16:19:31.675Z,2.33
2022-10-30T16:22:55.327Z,2.97
2022-10-30T16:26:32.636Z,2.67
2022-10-30T16:30:00.872Z,2.60
2022-10-30T16:33:29.218Z,2.73
2022-10-30T16:36:53.945Z,2.33
2022-10-30T16:40:22.913Z,3.60
2022-10-30T16:44:17.292Z,3.23
2022-10-30T16:47:46.119Z,4.55
2022-10-30T16:51:17.427Z,5.57
2022-10-30T16:54:48.434Z,5.20
2022-10-30T16:58:14.662Z,5.07
2022-10-30T17:01:40.217Z,4.20
2022-10-30T17:05:13.579Z,3.13
2022-10-30T17:08:44.370Z,2.63
2022-10-30T17:12:20.539Z,2.43
2022-10-30T17:15:44.098Z,1.90
2022-10-30T17:19:48.344Z,2.27
2022-10-30T17:23:19.558Z,2.20
2022-10-30T17:26:43.431Z,2.70
2022-10-30T17:30:40.675Z,2.63
2022-10-30T17:34:14.617Z,3.20
2022-10-30T17:37:39.854Z,2.63
2022-10-30T17:41:04.189Z,2.50
2022-10-30T17:44:29.694Z,2.23
2022-10-30T17:47:53.538Z,1.83
2022-10-30T17:51:18.712Z,2.07
2022-10-30T17:54:45.093Z,2.23
2022-10-30T17:58:08.554Z,1.80
2022-10-30T18:01:32.502Z,1.87
2022-10-30T18:04:56.742Z,1.70
2022-10-30T18:08:20.574Z,1.67
2022-10-30T18:11:46.085Z,1.90
2022-10-30T18:15:32.617Z,2.10
2022-10-30T18:18:57.145Z,2.30
2022-10-30T18:22:20.922Z,2.67
2022-10-30T18:25:45.025Z,2.97
2022-10-30T18:29:10.234Z,3.30
2022-10-30T18:32:33.675Z,3.07
2022-10-30T18:35:59.333Z,2.27
2022-10-30T18:39:22.763Z,2.00
2022-10-30T18:42:46.270Z,1.90
2022-10-30T18:46:12.740Z,2.13
2022-10-30T18:49:36.482Z,1.80
2022-10-30T18:53:01.332Z,1.77
2022-10-30T18:56:27.288Z,1.93
2022-10-30T18:59:51.099Z,1.50
2022-10-30T19:03:16.380Z,1.90
2022-10-30T19:06:40.220Z,1.53
2022-10-30T19:10:04.393Z,1.47
2022-10-30T19:13:27.900Z,1.70
2022-10-30T19:16:51.932Z,1.77
2022-10-30T19:20:17.245Z,1.90
2022-10-30T19:23:41.150Z,2.00
2022-10-30T19:27:04.953Z,1.90
2022-10-30T19:30:29.274Z,1.90
2022-10-30T19:33:57.423Z,2.20
2022-10-30T19:37:22.511Z,1.93
2022-10-30T19:40:46.045Z,2.23
2022-10-30T19:44:10.328Z,2.00
2022-10-30T19:47:34.151Z,2.40
2022-10-30T19:50:59.030Z,2.20
2022-10-30T19:54:25.068Z,2.20
2022-10-30T19:57:49.499Z,1.80
2022-10-30T20:01:15.025Z,1.90
2022-10-30T20:04:39.136Z,1.70
2022-10-30T20:08:06.617Z,1.77
2022-10-30T20:11:32.082Z,1.80
2022-10-30T20:14:56.160Z,1.67
2022-10-30T20:18:23.476Z,1.90
2022-10-30T20:21:47.623Z,1.50
2022-10-30T20:25:12.287Z,1.77
2022-10-30T20:28:40.939Z,2.00
2022-10-30T20:32:06.730Z,1.80
2022-10-30T20:35:30.606Z,2.03
2022-10-30T20:38:54.773Z,2.80
2022-10-30T20:42:22.229Z,2.70
2022-10-30T20:45:48.244Z,2.30
2022-10-30T20:49:17.589Z,2.30
2022-10-30T20:52:42.269Z,3.20
2022-10-30T20:56:07.082Z,2.30
2022-10-30T20:59:31.091Z,2.57
2022-10-30T21:02:57.317Z,2.33
2022-10-30T21:06:21.315Z,2.33
2022-10-30T21:09:45.531Z,1.90
2022-10-30T21:13:11.163Z,2.80
2022-10-30T21:16:35.251Z,1.73
2022-10-30T21:20:00.719Z,2.03
2022-10-30T21:23:24.929Z,2.30
2022-10-30T21:26:49.375Z,1.67
2022-10-30T21:30:14.073Z,2.53
2022-10-30T21:33:39.066Z,2.40
2022-10-30T21:37:04.290Z,3.07
2022-10-30T21:40:28.382Z,3.03
2022-10-30T21:43:54.423Z,2.73
2022-10-30T21:47:18.227Z,2.93
2022-10-30T21:50:42.316Z,2.17
2022-10-30T21:54:07.992Z,2.37
2022-10-30T21:57:32.011Z,2.23
2022-10-30T22:00:56.176Z,2.20
2022-10-30T22:04:20.780Z,2.00
2022-10-30T22:07:44.740Z,1.77
2022-10-30T22:11:11.814Z,2.23
2022-10-30T22:14:35.887Z,2.17
2022-10-30T22:18:00.683Z,2.30
2022-10-30T22:21:25.010Z,1.90
2022-10-30T22:24:49.290Z,2.30
2022-10-30T22:28:14.325Z,1.97
2022-10-30T22:31:38.340Z,1.80
2022-10-30T22:35:02.857Z,2.33
2022-10-30T22:38:26.768Z,2.07
2022-10-30T22:41:50.832Z,1.90
2022-10-30T22:45:16.523Z,1.60
2022-10-30T22:48:41.344Z,1.50
2022-10-30T22:52:05.464Z,1.77
2022-10-30T22:55:30.341Z,2.10
2022-10-30T22:58:54.817Z,2.00
2022-10-30T23:02:19.603Z,1.60
2022-10-30T23:05:43.673Z,1.93
2022-10-30T23:09:09.676Z,1.97
2022-10-30T23:12:33.474Z,1.80
2022-10-30T23:16:01.772Z,2.50
2022-10-30T23:19:27.737Z,2.10
2022-10-30T23:22:51.566Z,2.53
2022-10-30T23:26:17.222Z,2.13
2022-10-30T23:29:40.981Z,2.50
2022-10-30T23:33:04.847Z,2.30
2022-10-30T23:36:30.352Z,1.70
2022-10-30T23:39:54.398Z,1.73
2022-10-30T23:43:18.175Z,1.67
2022-10-30T23:46:42.272Z,1.93
2022-10-30T23:50:06.695Z,1.60
2022-10-30T23:53:31.958Z,1.93
2022-10-30T23:56:55.390Z,1.40
